Time;durP1;ratioP1;P1;durP2;ratioP2;P2;SDS_P1;SDS_P2;PMS_P1;PMS_P2;Temp;Humidity;BMP_temperature;BMP_pressure;BME280_temperature;BME280_humidity;BME280_pressure;Samples;Min_cycle;Max_cycle;Signal;HPM_P1;HPM_P2
2023/07/07 00:01:21;;;;;;;6.20;4.65;;;12.90;99.90;;;;;;5013380;28;20034;-64
2023/07/07 00:03:46;;;;;;;7.10;5.05;;;12.90;99.90;;;;;;5013324;28;20022;-64
2023/07/07 00:06:12;;;;;;;9.13;4.80;;;12.90;99.90;;;;;;5013012;28;20395;-64
2023/07/07 00:08:37;;;;;;;7.13;4.93;;;12.80;99.90;;;;;;5013045;28;20030;-64
2023/07/07 00:11:04;;;;;;;7.88;5.20;;;12.80;99.90;;;;;;5013178;28;20033;-64
2023/07/07 00:13:30;;;;;;;6.97;4.65;;;12.80;99.90;;;;;;5013114;28;20188;-64
2023/07/07 00:15:58;;;;;;;7.72;5.25;;;12.80;99.90;;;;;;5012695;28;20058;-65
2023/07/07 00:18:27;;;;;;;6.68;4.95;;;12.80;99.90;;;;;;5013147;28;20033;-64
2023/07/07 00:20:54;;;;;;;10.98;6.20;;;12.80;99.90;;;;;;5012942;28;20104;-64
2023/07/07 00:23:19;;;;;;;9.57;6.00;;;12.80;99.90;;;;;;5013775;28;20079;-64
2023/07/07 00:25:45;;;;;;;9.48;5.15;;;12.80;99.90;;;;;;5016239;28;20030;-64
2023/07/07 00:28:10;;;;;;;9.05;5.20;;;12.80;99.90;;;;;;5016368;28;20399;-64
2023/07/07 00:30:36;;;;;;;7.43;4.43;;;12.70;99.90;;;;;;5016366;28;20033;-64
2023/07/07 00:33:01;;;;;;;9.80;5.28;;;12.70;99.90;;;;;;5016495;28;20034;-63
2023/07/07 00:35:27;;;;;;;5.00;4.25;;;12.60;99.90;;;;;;5016339;28;20038;-63
2023/07/07 00:37:52;;;;;;;6.82;4.93;;;12.60;99.90;;;;;;5016391;28;20080;-64
2023/07/07 00:40:19;;;;;;;5.18;4.53;;;12.60;99.90;;;;;;5016371;28;20084;-64
2023/07/07 00:42:45;;;;;;;8.13;4.82;;;12.50;99.90;;;;;;5016187;28;20443;-64
2023/07/07 00:45:15;;;;;;;6.82;4.80;;;12.50;99.90;;;;;;5016288;28;20030;-64
2023/07/07 00:48:03;;;;;;;12.75;5.57;;;12.50;99.90;;;;;;5015864;28;20040;-64
2023/07/07 00:50:33;;;;;;;8.57;5.30;;;12.50;99.90;;;;;;5016106;28;20029;-64
2023/07/07 00:52:59;;;;;;;9.60;5.03;;;12.50;99.90;;;;;;5016018;28;20452;-64
2023/07/07 00:55:32;;;;;;;8.35;5.25;;;12.40;99.90;;;;;;5016072;28;20383;-64
2023/07/07 00:58:03;;;;;;;9.75;5.45;;;12.40;99.90;;;;;;5016013;28;20484;-64
2023/07/07 01:00:29;;;;;;;8.43;4.82;;;12.40;99.90;;;;;;5015698;28;20124;-64
2023/07/07 01:02:57;;;;;;;9.05;5.32;;;12.30;99.90;;;;;;5015787;28;20029;-64
2023/07/07 01:05:28;;;;;;;5.68;4.82;;;12.30;99.90;;;;;;5015695;28;20026;-64
2023/07/07 01:07:58;;;;;;;8.73;5.78;;;12.30;99.90;;;;;;5015721;28;20488;-64
2023/07/07 01:10:23;;;;;;;9.50;4.80;;;12.30;99.90;;;;;;5015811;28;20671;-65
2023/07/07 01:12:50;;;;;;;7.43;5.20;;;12.30;99.90;;;;;;5015724;28;20112;-64
2023/07/07 01:15:16;;;;;;;7.20;4.95;;;12.20;99.90;;;;;;5015162;28;20054;-64
2023/07/07 01:18:11;;;;;;;6.88;5.53;;;12.20;99.90;;;;;;5015637;28;20022;-65
2023/07/07 01:21:01;;;;;;;8.00;5.25;;;12.20;99.90;;;;;;5015378;28;20080;-64
2023/07/07 01:23:49;;;;;;;12.07;5.13;;;12.10;99.90;;;;;;5015375;28;20100;-64
2023/07/07 01:26:51;;;;;;;7.95;5.05;;;12.10;99.90;;;;;;5015261;28;20459;-64
2023/07/07 01:29:45;;;;;;;8.68;5.40;;;12.00;99.90;;;;;;5015352;28;20033;-64
2023/07/07 01:32:17;;;;;;;7.57;5.32;;;12.00;99.90;;;;;;5015218;28;20508;-64
2023/07/07 01:34:42;;;;;;;7.90;5.47;;;12.00;99.90;;;;;;5015066;28;20112;-65
2023/07/07 01:37:08;;;;;;;7.93;6.00;;;12.10;99.90;;;;;;5015023;28;20564;-64
2023/07/07 01:39:35;;;;;;;9.32;5.30;;;12.10;99.90;;;;;;5015084;28;20045;-64
2023/07/07 01:42:10;;;;;;;7.55;5.82;;;12.10;99.90;;;;;;5015073;28;20088;-64
2023/07/07 01:44:52;;;;;;;11.98;5.60;;;12.00;99.90;;;;;;5014982;28;20041;-64
2023/07/07 01:47:25;;;;;;;10.15;6.20;;;12.00;99.90;;;;;;5015084;28;20547;-64
2023/07/07 01:49:59;;;;;;;8.20;5.85;;;12.00;99.90;;;;;;5014765;28;20037;-64
2023/07/07 01:52:32;;;;;;;10.38;5.72;;;12.00;99.90;;;;;;5014828;28;20053;-65
2023/07/07 01:55:04;;;;;;;11.80;5.47;;;12.00;99.90;;;;;;5015016;28;20034;-64
2023/07/07 01:57:32;;;;;;;7.85;5.38;;;12.00;99.90;;;;;;5014690;28;20554;-64
2023/07/07 01:59:58;;;;;;;8.00;4.93;;;11.90;99.90;;;;;;5014723;28;20026;-64
2023/07/07 02:02:25;;;;;;;6.03;5.03;;;11.90;99.90;;;;;;5014707;28;20022;-65
2023/07/07 02:04:50;;;;;;;10.73;5.60;;;11.90;99.90;;;;;;5014945;28;20026;-64
2023/07/07 02:07:16;;;;;;;9.48;5.93;;;11.90;99.90;;;;;;5014689;28;20091;-64
2023/07/07 02:09:41;;;;;;;12.63;6.28;;;11.90;99.90;;;;;;5014479;28;20030;-64
2023/07/07 02:12:07;;;;;;;11.48;6.05;;;11.90;99.90;;;;;;5014690;28;20037;-64
2023/07/07 02:14:33;;;;;;;9.07;5.60;;;11.90;99.90;;;;;;5014483;28;20044;-64
2023/07/07 02:16:58;;;;;;;8.35;5.70;;;11.80;99.90;;;;;;5014117;28;20069;-64
2023/07/07 02:19:24;;;;;;;10.23;5.78;;;11.80;99.90;;;;;;5014423;28;20088;-65
2023/07/07 02:21:49;;;;;;;9.75;5.32;;;11.80;99.90;;;;;;5014444;28;20022;-65
2023/07/07 02:24:15;;;;;;;9.85;5.60;;;11.70;99.90;;;;;;5014197;28;20050;-65
2023/07/07 02:26:40;;;;;;;10.80;5.65;;;11.70;99.90;;;;;;5014194;28;20034;-64
2023/07/07 02:29:06;;;;;;;5.93;5.28;;;11.70;99.90;;;;;;5014364;28;20038;-64
2023/07/07 02:31:32;;;;;;;7.25;5.70;;;11.70;99.90;;;;;;5014121;28;20030;-64
2023/07/07 02:33:57;;;;;;;8.50;6.03;;;11.60;99.90;;;;;;5014155;28;20097;-65
2023/07/07 02:36:24;;;;;;;10.18;5.22;;;11.60;99.90;;;;;;5014059;28;20034;-64
2023/07/07 02:38:52;;;;;;;11.93;6.30;;;11.50;99.90;;;;;;5014122;28;20468;-64
2023/07/07 02:41:19;;;;;;;8.38;6.78;;;11.50;99.90;;;;;;5013932;28;20030;-64
2023/07/07 02:43:44;;;;;;;10.20;6.13;;;11.50;99.90;;;;;;5013885;28;20030;-64
2023/07/07 02:46:10;;;;;;;11.20;7.45;;;11.50;99.90;;;;;;5013653;28;20041;-64
2023/07/07 02:48:37;;;;;;;8.65;6.38;;;11.50;99.90;;;;;;5014180;28;20065;-64
2023/07/07 02:51:05;;;;;;;7.90;5.88;;;11.50;99.90;;;;;;5013939;28;20049;-64
2023/07/07 02:53:33;;;;;;;8.40;6.50;;;11.50;99.90;;;;;;5013969;28;20037;-64
2023/07/07 02:55:58;;;;;;;8.20;6.03;;;11.40;99.90;;;;;;5013715;28;20029;-64
2023/07/07 02:58:25;;;;;;;8.27;5.60;;;11.40;99.90;;;;;;5013870;28;20034;-65
2023/07/07 03:00:52;;;;;;;6.03;5.25;;;11.40;99.90;;;;;;5012624;28;20037;-64
2023/07/07 03:03:18;;;;;;;8.18;5.88;;;11.40;99.90;;;;;;5013857;28;20030;-64
2023/07/07 03:05:45;;;;;;;11.25;6.60;;;11.30;99.90;;;;;;5013604;28;20026;-64
2023/07/07 03:08:11;;;;;;;6.40;5.55;;;11.30;99.90;;;;;;5012404;28;20506;-64
2023/07/07 03:10:38;;;;;;;8.40;5.95;;;11.30;99.90;;;;;;5012602;28;20128;-64
2023/07/07 03:13:04;;;;;;;7.63;6.10;;;11.20;99.90;;;;;;5013342;28;20026;-65
2023/07/07 03:15:38;;;;;;;9.95;5.78;;;11.20;99.90;;;;;;5013173;28;20054;-65
2023/07/07 03:18:07;;;;;;;6.65;5.63;;;11.20;99.90;;;;;;5013492;28;20507;-64
2023/07/07 03:20:33;;;;;;;7.30;5.65;;;11.20;99.90;;;;;;5012390;28;20026;-64
2023/07/07 03:22:58;;;;;;;7.00;5.57;;;11.20;99.90;;;;;;5013542;28;20087;-65
2023/07/07 03:25:26;;;;;;;7.88;6.15;;;11.10;99.90;;;;;;5013618;28;20030;-64
2023/07/07 03:27:52;;;;;;;10.50;6.18;;;11.10;99.90;;;;;;5013667;28;20025;-65
2023/07/07 03:30:18;;;;;;;8.55;6.15;;;11.10;99.90;;;;;;5013194;28;20026;-64
2023/07/07 03:32:44;;;;;;;9.13;5.70;;;11.10;99.90;;;;;;5013426;28;20155;-64
2023/07/07 03:35:09;;;;;;;9.98;5.63;;;11.10;99.90;;;;;;5013463;28;20124;-64
2023/07/07 03:37:37;;;;;;;6.07;5.47;;;11.10;99.90;;;;;;5013240;28;20122;-65
2023/07/07 03:40:03;;;;;;;6.68;5.88;;;11.10;99.90;;;;;;5013579;28;20029;-64
2023/07/07 03:42:29;;;;;;;7.18;5.45;;;11.10;99.90;;;;;;5013081;28;20480;-63
2023/07/07 03:44:56;;;;;;;8.05;6.20;;;11.10;99.90;;;;;;5013500;28;20029;-65
2023/07/07 03:47:21;;;;;;;10.77;6.68;;;11.20;99.90;;;;;;5013123;28;20032;-64
2023/07/07 03:49:48;;;;;;;7.47;5.90;;;11.20;99.90;;;;;;5013147;28;20034;-64
2023/07/07 03:52:14;;;;;;;8.75;7.13;;;11.20;99.90;;;;;;5013246;28;20024;-64
2023/07/07 03:54:40;;;;;;;8.02;6.53;;;11.30;99.90;;;;;;5013276;28;20026;-64
2023/07/07 03:57:07;;;;;;;8.65;7.10;;;11.30;99.90;;;;;;5013080;28;20034;-64
2023/07/07 03:59:32;;;;;;;7.60;6.35;;;11.40;99.90;;;;;;5016166;28;20089;-65
2023/07/07 04:01:58;;;;;;;10.93;6.60;;;11.50;99.90;;;;;;5016884;28;20022;-64
2023/07/07 04:04:25;;;;;;;11.60;7.50;;;11.50;99.90;;;;;;5016990;28;20487;-64
2023/07/07 04:06:54;;;;;;;13.23;7.38;;;11.60;99.90;;;;;;5017080;28;20038;-64
2023/07/07 04:09:20;;;;;;;9.68;7.00;;;11.50;99.90;;;;;;5016901;28;20029;-64
2023/07/07 04:11:45;;;;;;;8.20;5.70;;;11.60;99.90;;;;;;5016700;28;20432;-64
2023/07/07 04:14:11;;;;;;;9.15;6.78;;;11.60;99.90;;;;;;5016689;28;20029;-64
2023/07/07 04:16:36;;;;;;;10.45;6.88;;;11.70;99.90;;;;;;5016391;28;20504;-65
2023/07/07 04:19:02;;;;;;;11.48;7.32;;;11.80;99.90;;;;;;5016634;28;20030;-65
2023/07/07 04:21:30;;;;;;;13.23;6.75;;;11.90;99.90;;;;;;5016665;28;20033;-64
2023/07/07 04:23:58;;;;;;;8.15;6.70;;;12.00;99.90;;;;;;5016752;28;20028;-64
2023/07/07 04:26:25;;;;;;;10.32;6.50;;;12.10;99.90;;;;;;5017101;28;20484;-64
2023/07/07 04:28:53;;;;;;;8.40;5.78;;;12.30;99.90;;;;;;5016742;28;20034;-64
2023/07/07 04:31:20;;;;;;;10.07;6.68;;;12.40;99.90;;;;;;5016444;28;20472;-65
2023/07/07 04:33:46;;;;;;;7.63;6.05;;;12.60;99.90;;;;;;5015259;28;20484;-64
2023/07/07 04:36:13;;;;;;;8.02;5.47;;;12.80;99.90;;;;;;5016278;28;20037;-65
2023/07/07 04:38:39;;;;;;;9.80;5.80;;;13.20;99.90;;;;;;5016420;28;20021;-65
2023/07/07 04:41:10;;;;;;;8.75;5.68;;;13.50;99.90;;;;;;5016439;28;20388;-65
2023/07/07 04:43:38;;;;;;;7.20;4.35;;;14.30;99.90;;;;;;5016259;28;20018;-64
2023/07/07 04:46:05;;;;;;;8.75;3.95;;;15.90;99.90;;;;;;5015973;28;20476;-65
2023/07/07 04:48:32;;;;;;;4.25;3.13;;;17.50;1.00;;;;;;5016293;28;20083;-65
2023/07/07 04:50:59;;;;;;;5.05;3.67;;;19.20;99.90;;;;;;5016236;28;20060;-66
2023/07/07 04:53:28;;;;;;;3.95;2.80;;;19.90;1.00;;;;;;5015795;28;20111;-65
2023/07/07 04:55:55;;;;;;;8.48;3.40;;;20.70;1.00;;;;;;5014690;28;20029;-65
2023/07/07 04:58:21;;;;;;;5.28;2.95;;;21.80;1.00;;;;;;5015972;28;20030;-65
2023/07/07 05:00:46;;;;;;;4.05;2.95;;;22.20;1.00;;;;;;5015777;28;20538;-65
2023/07/07 05:03:12;;;;;;;4.20;2.80;;;22.20;99.90;;;;;;5016035;28;20026;-65
2023/07/07 05:05:37;;;;;;;5.97;3.10;;;22.40;1.00;;;;;;5015760;28;20026;-66
2023/07/07 05:08:03;;;;;;;3.05;2.70;;;22.80;99.90;;;;;;5015862;28;20046;-66
2023/07/07 05:10:28;;;;;;;2.72;2.53;;;22.80;99.90;;;;;;5015089;28;20038;-66
2023/07/07 05:12:54;;;;;;;6.70;2.83;;;22.90;1.00;;;;;;5015751;28;20056;-65
2023/07/07 05:15:19;;;;;;;5.18;2.97;;;22.70;99.90;;;;;;5015221;28;20407;-66
2023/07/07 05:17:45;;;;;;;4.78;3.00;;;22.60;22.20;;;;;;5015484;28;20069;-65
2023/07/07 05:20:11;;;;;;;6.78;2.70;;;23.10;1.00;;;;;;5015448;28;20025;-65
2023/07/07 05:22:36;;;;;;;5.72;3.15;;;23.20;99.90;;;;;;5015502;28;20060;-65
2023/07/07 05:25:02;;;;;;;4.25;2.70;;;22.90;1.00;;;;;;5015352;28;20065;-65
2023/07/07 05:27:28;;;;;;;2.90;2.50;;;23.10;99.90;;;;;;5015348;28;20057;-66
2023/07/07 05:29:53;;;;;;;5.75;2.55;;;23.50;99.90;;;;;;5015405;28;20030;-65
2023/07/07 05:32:18;;;;;;;5.50;2.78;;;24.00;36.80;;;;;;5015386;28;20065;-66
2023/07/07 05:34:44;;;;;;;4.72;2.72;;;24.50;1.00;;;;;;5015059;28;20105;-66
2023/07/07 05:37:09;;;;;;;3.53;2.60;;;24.70;1.00;;;;;;5014954;28;20091;-65
2023/07/07 05:39:35;;;;;;;3.50;2.75;;;25.90;99.90;;;;;;5015113;28;20026;-66
2023/07/07 05:42:00;;;;;;;3.28;2.53;;;25.80;99.90;;;;;;5015106;28;20026;-66
2023/07/07 05:44:26;;;;;;;2.85;2.60;;;26.30;99.90;;;;;;5015128;28;20030;-66
2023/07/07 05:46:52;;;;;;;4.75;2.92;;;26.20;99.90;;;;;;5015176;28;20034;-66
2023/07/07 05:49:17;;;;;;;5.32;3.00;;;26.20;99.90;;;;;;5015074;28;20033;-66
2023/07/07 05:51:43;;;;;;;4.18;3.08;;;25.60;99.90;;;;;;5014814;28;20502;-66
2023/07/07 05:54:09;;;;;;;5.47;3.05;;;25.10;99.90;;;;;;5014835;28;20030;-66
2023/07/07 05:56:35;;;;;;;4.32;2.60;;;25.60;99.90;;;;;;5014494;28;20377;-66
2023/07/07 05:59:02;;;;;;;5.70;2.60;;;26.70;99.90;;;;;;5014807;28;20033;-66
2023/07/07 06:01:28;;;;;;;8.15;2.80;;;28.10;55.40;;;;;;5014699;28;20361;-66
2023/07/07 06:03:53;;;;;;;4.25;2.58;;;27.60;17.60;;;;;;5014511;28;20048;-66
2023/07/07 06:06:19;;;;;;;5.85;2.60;;;27.10;25.70;;;;;;5014885;28;20042;-66
2023/07/07 06:08:45;;;;;;;4.35;2.95;;;26.70;72.70;;;;;;5014689;28;20026;-66
2023/07/07 06:11:10;;;;;;;5.13;2.58;;;27.40;44.00;;;;;;5014318;28;20060;-66
2023/07/07 06:13:36;;;;;;;3.63;2.55;;;26.70;77.10;;;;;;5014622;28;20471;-66
2023/07/07 06:16:02;;;;;;;6.13;2.60;;;27.10;66.50;;;;;;5011834;28;20073;-66
2023/07/07 06:18:27;;;;;;;6.80;2.47;;;27.00;91.70;;;;;;5011528;28;20033;-64
2023/07/07 06:20:55;;;;;;;3.30;2.33;;;26.90;45.40;;;;;;5013411;28;20033;-66
2023/07/07 06:23:21;;;;;;;4.95;2.38;;;27.50;43.60;;;;;;5012059;28;20041;-66
2023/07/07 06:25:48;;;;;;;3.45;2.25;;;28.20;14.10;;;;;;5013220;28;20479;-67
2023/07/07 06:28:15;;;;;;;6.05;2.40;;;27.00;9.80;;;;;;5013646;28;20038;-66
2023/07/07 06:30:41;;;;;;;7.63;2.70;;;27.10;30.40;;;;;;5011609;28;20404;-68
2023/07/07 06:33:06;;;;;;;3.05;2.20;;;28.10;10.00;;;;;;5013342;28;20029;-66
2023/07/07 06:35:32;;;;;;;3.75;2.30;;;28.80;1.00;;;;;;5011716;28;20034;-66
2023/07/07 06:37:58;;;;;;;3.90;2.40;;;28.20;1.00;;;;;;5014042;28;20026;-66
2023/07/07 06:40:23;;;;;;;2.92;1.80;;;28.40;1.00;;;;;;5011955;28;20101;-66
2023/07/07 06:42:51;;;;;;;5.25;2.05;;;27.90;1.00;;;;;;5011283;28;20026;-66
2023/07/07 06:45:16;;;;;;;3.08;2.28;;;27.60;1.00;;;;;;5013529;28;20030;-66
2023/07/07 06:47:42;;;;;;;4.00;2.05;;;28.80;1.00;;;;;;5012855;28;20117;-66
2023/07/07 06:50:14;;;;;;;5.53;2.22;;;28.90;99.90;;;;;;5012391;28;20042;-66
2023/07/07 06:52:40;;;;;;;4.13;1.90;;;28.90;99.90;;;;;;5011862;28;20037;-66
2023/07/07 06:55:06;;;;;;;2.03;1.80;;;28.80;99.90;;;;;;5013640;28;20038;-66
2023/07/07 06:57:31;;;;;;;3.67;2.10;;;29.00;99.90;;;;;;5012940;28;20041;-66
2023/07/07 06:59:58;;;;;;;2.45;2.08;;;29.30;1.00;;;;;;5007929;28;20038;-66
2023/07/07 07:02:23;;;;;;;3.90;2.03;;;28.80;1.00;;;;;;5007422;28;20503;-66
2023/07/07 07:04:49;;;;;;;2.55;1.90;;;29.40;1.00;;;;;;5011706;28;20026;-66
2023/07/07 07:07:14;;;;;;;6.57;1.90;;;29.50;1.00;;;;;;5013251;28;20033;-66
2023/07/07 07:09:40;;;;;;;7.45;1.80;;;30.50;1.00;;;;;;5010738;28;20029;-66
2023/07/07 07:12:06;;;;;;;5.40;1.88;;;30.00;1.00;;;;;;5016813;28;20030;-66
2023/07/07 07:14:31;;;;;;;4.28;2.00;;;30.30;1.00;;;;;;5006155;28;20021;-66
2023/07/07 07:16:57;;;;;;;3.17;1.70;;;30.30;1.00;;;;;;5011209;28;20050;-67
2023/07/07 07:19:22;;;;;;;2.47;1.75;;;30.90;1.00;;;;;;5009954;28;20050;-63
2023/07/07 07:21:48;;;;;;;1.85;1.67;;;30.50;1.00;;;;;;5007845;28;20026;-64
2023/07/07 07:24:14;;;;;;;1.88;1.75;;;30.40;1.00;;;;;;5009060;28;20403;-66
2023/07/07 07:26:39;;;;;;;2.22;1.70;;;30.10;1.00;;;;;;5010746;28;20361;-64
2023/07/07 07:29:05;;;;;;;6.68;1.98;;;30.00;1.00;;;;;;5010367;28;20041;-65
2023/07/07 07:31:30;;;;;;;6.53;2.80;;;30.90;1.00;;;;;;5013017;28;20025;-65
2023/07/07 07:34:22;;;;;;;2.58;1.60;;;30.80;1.00;;;;;;5014096;28;20041;-66
2023/07/07 07:36:48;;;;;;;3.20;1.52;;;;;;;;;;5011780;28;20037;-67
2023/07/07 07:39:13;;;;;;;2.47;1.73;;;32.40;1.00;;;;;;5018969;28;20034;-67
2023/07/07 07:41:39;;;;;;;3.08;1.75;;;32.90;1.00;;;;;;5012259;28;20029;-65
2023/07/07 07:44:04;;;;;;;2.55;1.48;;;31.30;1.00;;;;;;5014872;28;20033;-66
2023/07/07 07:46:30;;;;;;;2.65;1.60;;;31.50;1.00;;;;;;5020160;28;20033;-66
2023/07/07 07:48:55;;;;;;;2.47;1.60;;;31.00;1.00;;;;;;5012346;28;20060;-64
2023/07/07 07:51:21;;;;;;;3.38;1.67;;;31.00;1.00;;;;;;5027987;28;20037;-64
2023/07/07 07:53:47;;;;;;;3.40;1.50;;;31.90;1.00;;;;;;5028498;28;20109;-64
2023/07/07 07:56:12;;;;;;;2.85;1.70;;;32.10;1.00;;;;;;5011515;28;20399;-65
2023/07/07 07:58:38;;;;;;;5.45;1.90;;;31.90;1.00;;;;;;5026479;28;20025;-64
2023/07/07 08:01:03;;;;;;;7.15;1.85;;;31.40;1.00;;;;;;5019998;28;20021;-65
2023/07/07 08:03:29;;;;;;;4.35;1.55;;;31.00;1.00;;;;;;5022130;28;20028;-68
2023/07/07 08:05:54;;;;;;;3.20;1.77;;;30.90;1.00;;;;;;5015007;28;20391;-63
2023/07/07 08:08:20;;;;;;;3.13;1.80;;;31.60;1.00;;;;;;5016882;28;20045;-65
2023/07/07 08:10:45;;;;;;;2.20;1.42;;;31.40;1.00;;;;;;5015763;28;20045;-64
2023/07/07 08:13:11;;;;;;;4.93;1.83;;;32.00;1.00;;;;;;5021263;28;20072;-65
2023/07/07 08:15:36;;;;;;;3.13;1.85;;;32.10;1.00;;;;;;5014833;28;20058;-67
2023/07/07 08:18:02;;;;;;;4.53;2.00;;;31.40;1.00;;;;;;5021524;28;20036;-64
2023/07/07 08:20:28;;;;;;;3.58;1.65;;;31.10;1.00;;;;;;5014783;28;20380;-64
2023/07/07 08:22:53;;;;;;;2.58;1.63;;;32.10;1.00;;;;;;5019758;28;20029;-64
2023/07/07 08:25:19;;;;;;;2.53;1.55;;;32.10;1.00;;;;;;5019243;28;20476;-65
2023/07/07 08:27:45;;;;;;;2.78;1.60;;;31.90;1.00;;;;;;5016295;28;20561;-64
2023/07/07 08:30:11;;;;;;;4.00;1.92;;;32.20;1.00;;;;;;5014856;28;20041;-64
2023/07/07 08:32:36;;;;;;;3.30;1.80;;;33.40;1.00;;;;;;5017890;28;20030;-64
2023/07/07 08:35:02;;;;;;;3.45;1.80;;;33.10;1.00;;;;;;5013292;28;20563;-65
2023/07/07 08:37:28;;;;;;;3.50;1.30;;;33.20;1.00;;;;;;5016108;28;20114;-64
2023/07/07 08:39:54;;;;;;;1.67;1.25;;;32.70;1.00;;;;;;5014151;28;20553;-64
2023/07/07 08:42:39;;;;;;;2.83;1.48;;;33.10;1.00;;;;;;5014077;28;20030;-64
2023/07/07 08:45:13;;;;;;;6.72;1.48;;;31.80;1.00;;;;;;5014927;28;20029;-64
2023/07/07 08:47:51;;;;;;;2.90;1.63;;;32.40;1.00;;;;;;5016351;28;20037;-66
2023/07/07 08:53:34;;;;;;;3.28;1.77;;;32.00;1.00;;;;;;5108435;27;20881;-64
2023/07/07 08:56:20;;;;;;;3.38;1.63;;;33.40;1.00;;;;;;5109553;28;20031;-66
2023/07/07 08:59:13;;;;;;;3.33;1.48;;;32.90;1.00;;;;;;5104060;28;20046;-64
2023/07/07 09:01:59;;;;;;;;;;;33.50;1.00;;;;;;5073061;28;20478;-65
2023/07/07 09:04:51;;;;;;;2.75;2.03;;;34.50;1.00;;;;;;5082857;28;20361;-67
2023/07/07 09:07:56;;;;;;;3.83;1.80;;;33.00;1.00;;;;;;5083371;28;20048;-64
2023/07/07 09:11:01;;;;;;;2.58;1.42;;;32.50;1.00;;;;;;5088143;28;20035;-65
2023/07/07 09:13:32;;;;;;;3.38;1.73;;;33.70;1.00;;;;;;5088731;28;20103;-65
2023/07/07 09:16:22;;;;;;;5.32;1.42;;;32.50;1.00;;;;;;5088191;28;20055;-65
2023/07/07 09:18:54;;;;;;;6.97;1.85;;;32.70;1.00;;;;;;5080825;28;20117;-68
2023/07/07 09:21:25;;;;;;;3.15;1.90;;;;;;;;;;5085045;28;20077;-64
2023/07/07 09:23:54;;;;;;;3.75;1.90;;;34.20;1.00;;;;;;5077554;28;20098;-65
2023/07/07 09:26:30;;;;;;;3.25;1.90;;;34.30;1.00;;;;;;5094600;28;20034;-67
2023/07/07 09:28:58;;;;;;;3.55;1.67;;;34.50;1.00;;;;;;5096610;28;20029;-64
2023/07/07 09:31:37;;;;;;;2.17;1.92;;;33.50;1.00;;;;;;5094452;28;20039;-65
2023/07/07 09:34:03;;;;;;;2.72;1.90;;;33.50;1.00;;;;;;5086658;28;20035;-65
2023/07/07 09:36:42;;;;;;;3.47;1.80;;;31.90;1.00;;;;;;5091972;28;20028;-64
2023/07/07 09:39:24;;;;;;;2.10;1.80;;;32.30;1.00;;;;;;5089013;28;20426;-64
2023/07/07 09:42:07;;;;;;;6.28;2.08;;;31.70;1.00;;;;;;5080574;28;20028;-65
2023/07/07 09:44:52;;;;;;;4.55;2.00;;;32.70;1.00;;;;;;5085993;28;20032;-64
2023/07/07 09:47:29;;;;;;;2.83;1.80;;;33.40;1.00;;;;;;5089528;28;20117;-64
2023/07/07 09:50:09;;;;;;;3.97;2.03;;;33.70;1.00;;;;;;5086394;28;20032;-66
2023/07/07 09:52:46;;;;;;;2.70;1.90;;;32.50;1.00;;;;;;5085982;28;20048;-65
2023/07/07 09:55:30;;;;;;;2.38;1.60;;;32.70;1.00;;;;;;5088065;28;20397;-64
2023/07/07 09:58:13;;;;;;;2.45;1.70;;;31.90;1.00;;;;;;5078761;28;20055;-64
2023/07/07 10:00:41;;;;;;;3.63;2.05;;;31.20;1.00;;;;;;5088588;28;20016;-64
2023/07/07 10:03:44;;;;;;;1.67;1.58;;;31.50;1.00;;;;;;5077509;28;20028;-64
2023/07/07 10:06:31;;;;;;;3.55;1.70;;;31.70;1.00;;;;;;5095845;28;20035;-64
2023/07/07 10:08:57;;;;;;;3.45;1.65;;;33.40;1.00;;;;;;5095646;28;20054;-65
2023/07/07 10:11:28;;;;;;;4.38;2.00;;;33.90;1.00;;;;;;5095917;28;20036;-64
2023/07/07 10:13:55;;;;;;;3.03;1.67;;;33.50;1.00;;;;;;5094582;28;20458;-64
2023/07/07 10:17:00;;;;;;;2.72;1.98;;;33.30;1.00;;;;;;5095962;28;20020;-64
2023/07/07 10:19:26;;;;;;;2.75;1.90;;;33.40;1.00;;;;;;5065750;28;20024;-64
2023/07/07 10:21:52;;;;;;;2.53;1.85;;;32.70;1.00;;;;;;5089227;28;20035;-64
2023/07/07 10:24:18;;;;;;;3.88;1.85;;;31.70;1.00;;;;;;5071580;28;20477;-64
2023/07/07 10:26:47;;;;;;;4.05;2.05;;;32.00;1.00;;;;;;5061935;28;20029;-64
2023/07/07 10:29:21;;;;;;;4.43;2.10;;;31.70;1.00;;;;;;5090034;28;20508;-65
2023/07/07 10:31:47;;;;;;;2.80;2.00;;;31.90;1.00;;;;;;5080333;28;20028;-65
2023/07/07 10:34:35;;;;;;;3.92;1.90;;;33.10;1.00;;;;;;5085999;28;20142;-66
2023/07/07 10:37:01;;;;;;;3.60;1.95;;;33.10;1.00;;;;;;5060822;28;20036;-66
2023/07/07 10:39:28;;;;;;;2.88;2.15;;;33.20;1.00;;;;;;5047686;28;21717;-65
2023/07/07 10:41:54;;;;;;;3.40;2.10;;;32.30;1.00;;;;;;5047092;28;20036;-68
2023/07/07 10:44:23;;;;;;;2.88;1.90;;;31.60;1.00;;;;;;5049854;28;20074;-66
2023/07/07 10:46:49;;;;;;;3.33;2.08;;;31.10;1.00;;;;;;5045146;28;20119;-66
2023/07/07 10:49:18;;;;;;;1.92;1.60;;;30.90;1.00;;;;;;5045166;28;20037;-69
2023/07/07 10:52:12;;;;;;;4.38;2.08;;;31.10;1.00;;;;;;5052495;28;20048;-67
2023/07/07 10:55:00;;;;;;;2.70;2.00;;;31.20;1.00;;;;;;5049471;28;20028;-65
2023/07/07 11:01:21;;;;;;;4.75;2.40;;;31.30;1.00;;;;;;5077970;27;20450;-66
2023/07/07 11:04:15;;;;;;;4.32;2.22;;;30.30;1.00;;;;;;5067074;28;20037;-64
2023/07/07 11:06:51;;;;;;;;;;;29.50;1.00;;;;;;5067002;28;20068;-64
2023/07/07 11:09:36;;;;;;;2.97;2.33;;;29.90;1.00;;;;;;5054998;28;19904;-65
2023/07/07 11:12:28;;;;;;;3.80;2.05;;;30.00;1.00;;;;;;5065763;28;20032;-65
2023/07/07 11:15:24;;;;;;;7.13;2.50;;;29.50;1.00;;;;;;5068745;28;20032;-64
2023/07/07 11:18:29;;;;;;;4.25;2.20;;;29.50;1.00;;;;;;5073755;28;20024;-65
2023/07/07 11:21:09;;;;;;;5.25;2.38;;;29.60;1.00;;;;;;5061486;28;20103;-64
2023/07/07 11:23:56;;;;;;;4.45;2.10;;;29.80;1.00;;;;;;5066849;28;20056;-65
2023/07/07 11:27:02;;;;;;;3.65;2.03;;;29.80;1.00;;;;;;5068370;28;20500;-64
2023/07/07 11:29:38;;;;;;;3.10;2.08;;;30.10;1.00;;;;;;5069363;28;20025;-65
2023/07/07 11:32:42;;;;;;;3.63;2.20;;;29.50;1.00;;;;;;5067138;28;20029;-65
2023/07/07 11:35:24;;;;;;;4.40;2.10;;;29.00;1.00;;;;;;5070103;28;20029;-65
2023/07/07 11:38:15;;;;;;;2.38;2.17;;;29.10;1.00;;;;;;5068918;28;20025;-64
2023/07/07 11:40:57;;;;;;;3.33;2.17;;;29.00;1.00;;;;;;5064516;28;20124;-65
2023/07/07 11:46:58;;;;;;;2.92;2.10;;;29.00;1.00;;;;;;5111082;27;20433;-65
2023/07/07 11:49:55;;;;;;;2.53;2.33;;;29.00;1.00;;;;;;5108065;28;20028;-66
2023/07/07 11:53:01;;;;;;;7.00;2.67;;;29.30;1.00;;;;;;5104809;28;20030;-65
2023/07/07 11:56:06;;;;;;;3.47;2.00;;;29.50;1.00;;;;;;5109741;28;20024;-65
2023/07/07 11:58:45;;;;;;;3.40;2.10;;;29.00;1.00;;;;;;5106760;28;20105;-65
2023/07/07 12:01:17;;;;;;;3.95;2.05;;;29.40;1.00;;;;;;5109671;28;20085;-64
2023/07/07 12:03:50;;;;;;;5.85;2.30;;;29.60;1.00;;;;;;5110522;28;20023;-65
2023/07/07 12:06:37;;;;;;;2.63;2.00;;;29.70;1.00;;;;;;5109881;28;20103;-65
2023/07/07 12:09:23;;;;;;;2.45;2.10;;;29.40;1.00;;;;;;5099153;28;20019;-65
2023/07/07 12:11:57;;;;;;;4.10;1.92;;;29.70;1.00;;;;;;5108667;28;20039;-64
2023/07/07 12:14:34;;;;;;;4.03;2.25;;;29.70;1.00;;;;;;5109007;28;20081;-65
2023/07/07 12:17:01;;;;;;;5.25;2.42;;;29.50;1.00;;;;;;5110916;28;20036;-64
2023/07/07 12:19:37;;;;;;;3.80;2.58;;;29.40;1.00;;;;;;5110662;28;20023;-65
2023/07/07 12:22:10;;;;;;;3.28;2.25;;;28.80;1.00;;;;;;5109674;28;20028;-66
2023/07/07 12:24:53;;;;;;;3.45;2.30;;;29.00;1.00;;;;;;5107600;28;20542;-66
2023/07/07 12:27:25;;;;;;;4.18;2.50;;;29.40;1.00;;;;;;5103820;28;20028;-65
2023/07/07 12:29:52;;;;;;;3.90;2.10;;;28.70;1.00;;;;;;5094028;28;20028;-65
2023/07/07 12:32:18;;;;;;;3.40;2.20;;;29.10;1.00;;;;;;5104209;28;20058;-65
2023/07/07 12:34:49;;;;;;;5.30;2.60;;;28.80;1.00;;;;;;5110215;28;20028;-64
2023/07/07 12:37:20;;;;;;;4.60;2.35;;;28.90;1.00;;;;;;5110389;28;20485;-65
2023/07/07 12:40:13;;;;;;;3.92;2.03;;;29.20;1.00;;;;;;5109005;28;20051;-64
2023/07/07 12:42:40;;;;;;;3.53;2.38;;;29.40;1.00;;;;;;5109897;27;20393;-65
2023/07/07 12:45:16;;;;;;;2.97;2.25;;;29.60;1.00;;;;;;5109782;28;20044;-63
2023/07/07 12:47:45;;;;;;;3.53;2.00;;;29.30;1.00;;;;;;5110064;28;20035;-64
2023/07/07 12:50:34;;;;;;;4.10;2.40;;;29.30;1.00;;;;;;5110121;28;20024;-63
2023/07/07 12:53:03;;;;;;;2.72;2.45;;;29.50;1.00;;;;;;5110042;27;20047;-64
2023/07/07 12:55:31;;;;;;;2.35;1.98;;;29.40;1.00;;;;;;5109183;28;20469;-64
2023/07/07 12:58:09;;;;;;;5.63;2.58;;;29.20;1.00;;;;;;5095797;28;20078;-64
2023/07/07 13:00:39;;;;;;;4.18;2.40;;;29.20;1.00;;;;;;5096367;28;20028;-64
2023/07/07 13:03:18;;;;;;;4.75;2.35;;;29.10;1.00;;;;;;5095961;27;20020;-65
2023/07/07 13:05:47;;;;;;;3.38;2.25;;;29.40;1.00;;;;;;5096042;28;20035;-64
2023/07/07 13:08:34;;;;;;;4.93;2.10;;;29.30;1.00;;;;;;5096107;28;20081;-65
2023/07/07 13:11:07;;;;;;;3.97;2.30;;;29.20;1.00;;;;;;5096030;28;20393;-65
2023/07/07 13:13:37;;;;;;;2.05;1.88;;;28.70;1.00;;;;;;5095705;28;20060;-64
2023/07/07 13:16:04;;;;;;;3.78;2.55;;;28.70;1.00;;;;;;5095707;28;20036;-64
2023/07/07 13:18:30;;;;;;;5.72;2.50;;;28.80;1.00;;;;;;5096229;28;20032;-65
2023/07/07 13:20:59;;;;;;;4.97;2.60;;;28.70;1.00;;;;;;5094791;28;20499;-64
2023/07/07 13:23:33;;;;;;;5.47;2.25;;;28.80;1.00;;;;;;5095488;28;20035;-65